Airfield :
LOGIN :

Register | Disclaimer

   EN    FR    IT 

 










Legend :    VFR   Marginal VFR   IFR   Intensive IFR   Very Intensive IFR
Visi :
Ceiling :
>= 8 km
>= 3000ft
5 to 8 km
1000 to 3000 ft
1500m to 5 km
500 to 1000 ft
800 to 1500m
200 to 500 ft
< 800m
< 200 ft
Symbols :   Thunderstorms  Fog  Heavy snow  Heavy precipitations  Wind > 20 kt
SIGMETs :     Misc.  Thunderstorms  Icing  Turbulence  Mountain Waves  Volcanic Ashes






- Airport Elevation : 26 ft
- IATA code : BIA


LFKB - Bastia

CURRENT METAR :
  • 121700Z AUTO 15006KT 9999 BKN080 BKN150 BKN190 17/11 Q1010 NOSIG

EXPIRED METARs :
  • 121630Z AUTO 15006KT 120V220 9999 BKN080 18/09 Q1010 NOSIG
  • 121600Z AUTO 14008KT CAVOK 20/08 Q1010 NOSIG
  • 121530Z AUTO 13008KT 090V160 9999 FEW076 20/08 Q1010 NOSIG
  • 121500Z AUTO 13007KT 9999 FEW082 SCT200 21/10 Q1010 NOSIG
  • 121430Z AUTO 11008KT 060V140 CAVOK 21/09 Q1010 NOSIG

TAF TAF LFKB
Valid from the 12 at 15:00 until the 13 at 15:00 UTC


121400Z 1215/1315 10010KT 9999 FEW020 TX21/1313Z TN11/1304Z
BECMG 1222/1224 24004KT
BECMG 1308/1310 12010KT
TEMPO 1313/1315 26015G25KT
ATIS : +33 4 95 59 19 40



MET'MAP, your aeronautical weather chart ! - Copyright ORBIFLY December 2007 - Disclaimer

ORBIFLY MET'MAP TEAM :

Programming & Development : Alexandra Zaïnal
Concept & original design : Baudouin d'Aumeries
Assistance for programming : Marc-Olivier Méhu
Technical & hardware support : Manuel Goepfert

Contact : metmap@orbifly.com




SOURCES & CREDITS :

   NOAA